Time;durP1;ratioP1;P1;durP2;ratioP2;P2;SDS_P1;SDS_P2;PMS_P1;PMS_P2;Temp;Humidity;BMP_temperature;BMP_pressure;BME280_temperature;BME280_humidity;BME280_pressure;Samples;Min_cycle;Max_cycle;Signal;HPM_P1;HPM_P2
2022/06/01 00:00:23;;;;;;;1.20;0.80;;;;;;;13.26;57.76;100279.28;5051558;28;20039;-71
2022/06/01 00:02:48;;;;;;;1.70;0.75;;;;;;;13.25;58.08;100274.13;5051655;28;20033;-71
2022/06/01 00:05:14;;;;;;;1.08;0.90;;;;;;;13.22;57.59;100280.63;5051423;28;20040;-71
2022/06/01 00:07:39;;;;;;;1.10;0.70;;;;;;;13.20;57.79;100276.47;5050280;28;20548;-71
2022/06/01 00:10:05;;;;;;;1.10;0.90;;;;;;;13.15;58.20;100271.69;5050399;28;20123;-71
2022/06/01 00:12:30;;;;;;;1.42;0.90;;;;;;;13.07;59.00;100271.75;5047899;28;20510;-71
2022/06/01 00:14:57;;;;;;;1.73;1.02;;;;;;;13.00;59.05;100270.78;5051997;28;20029;-71
2022/06/01 00:17:23;;;;;;;1.40;1.20;;;;;;;12.91;59.06;100267.34;5047471;28;20045;-71
2022/06/01 00:19:49;;;;;;;1.73;1.15;;;;;;;12.84;59.23;100261.91;5047679;28;20036;-71
2022/06/01 00:22:14;;;;;;;1.52;0.82;;;;;;;12.82;59.29;100263.06;5048226;28;20036;-71
2022/06/01 00:24:45;;;;;;;1.15;0.85;;;;;;;12.79;59.43;100258.94;5049004;28;20053;-71
2022/06/01 00:27:12;;;;;;;2.40;0.90;;;;;;;12.76;59.50;100264.59;5051773;28;20041;-71
2022/06/01 00:29:38;;;;;;;1.55;1.00;;;;;;;12.70;60.54;100267.94;5051147;28;20386;-71
2022/06/01 00:32:04;;;;;;;1.50;1.02;;;;;;;12.65;60.16;100267.63;5049151;28;20493;-72
2022/06/01 00:34:30;;;;;;;1.55;1.10;;;;;;;12.57;60.13;100262.34;5045736;28;20570;-71
2022/06/01 00:36:55;;;;;;;2.50;1.30;;;;;;;12.49;60.55;100264.03;5049996;28;20036;-71
2022/06/01 00:39:20;;;;;;;1.38;1.05;;;;;;;12.44;60.38;100273.47;5050250;28;20053;-71
2022/06/01 00:41:46;;;;;;;1.58;1.05;;;;;;;12.41;60.50;100274.66;5050525;28;20501;-71
2022/06/01 00:44:11;;;;;;;1.58;1.08;;;;;;;12.41;60.23;100266.69;5048202;28;20035;-71
2022/06/01 00:46:37;;;;;;;1.42;1.02;;;;;;;12.42;60.30;100267.50;5050435;28;20078;-71
2022/06/01 00:49:33;;;;;;;1.48;1.00;;;;;;;12.36;60.60;100263.72;5050694;28;20486;-71
2022/06/01 00:51:59;;;;;;;1.58;1.00;;;;;;;12.35;60.21;100263.88;5045887;28;20033;-71
2022/06/01 00:54:26;;;;;;;1.60;0.98;;;;;;;12.35;59.87;100266.53;5052101;28;20036;-71
2022/06/01 00:57:00;;;;;;;1.73;1.10;;;;;;;12.32;60.08;100262.41;5051763;28;20033;-71
2022/06/01 00:59:30;;;;;;;1.52;0.90;;;;;;;12.27;60.80;100268.22;5050250;28;20037;-71
2022/06/01 01:01:56;;;;;;;1.83;1.15;;;;;;;12.18;60.71;100268.41;5050239;28;20067;-71
2022/06/01 01:04:23;;;;;;;3.25;1.13;;;;;;;12.08;61.41;100266.78;5050346;28;20116;-71
2022/06/01 01:06:48;;;;;;;1.42;1.05;;;;;;;12.05;61.26;100269.75;5048210;28;20030;-71
2022/06/01 01:09:14;;;;;;;1.48;1.05;;;;;;;12.06;60.97;100268.78;5050274;28;20044;-71
2022/06/01 01:11:47;;;;;;;1.38;1.00;;;;;;;12.03;61.55;100266.44;5049607;28;20463;-71
2022/06/01 01:14:16;;;;;;;1.67;1.10;;;;;;;12.00;61.12;100260.66;5039373;28;20029;-71
2022/06/01 01:16:42;;;;;;;5.47;1.17;;;;;;;12.05;61.15;100263.63;5048561;28;20025;-71
2022/06/01 01:19:18;;;;;;;2.10;1.27;;;;;;;12.06;61.65;100252.88;5046314;28;20045;-71
2022/06/01 01:21:56;;;;;;;1.20;1.00;;;;;;;12.03;61.74;100257.66;5044092;28;20687;-71
2022/06/01 01:24:22;;;;;;;2.35;1.50;;;;;;;11.93;62.86;100263.16;5049315;28;20060;-71
2022/06/01 01:26:50;;;;;;;1.15;1.00;;;;;;;11.85;62.13;100249.88;5055081;28;20033;-71
2022/06/01 01:29:28;;;;;;;2.05;1.38;;;;;;;11.78;63.87;100267.44;5049346;28;20041;-71
2022/06/01 01:31:53;;;;;;;2.70;1.50;;;;;;;11.68;63.42;100260.47;5049811;28;20627;-71
2022/06/01 01:34:19;;;;;;;1.85;1.20;;;;;;;11.63;63.10;100254.00;5046979;28;20103;-71
2022/06/01 01:36:50;;;;;;;1.70;1.25;;;;;;;11.60;62.83;100260.47;5047554;28;20033;-71
2022/06/01 01:39:16;;;;;;;3.30;1.40;;;;;;;11.61;62.59;100256.03;5049956;28;20434;-71
2022/06/01 01:41:46;;;;;;;2.45;1.30;;;;;;;11.60;63.54;100259.63;5051886;28;20499;-71
2022/06/01 01:44:32;;;;;;;2.88;2.00;;;;;;;11.50;66.09;100258.97;5048734;28;20101;-71
2022/06/01 01:46:58;;;;;;;2.95;1.80;;;;;;;11.40;64.59;100259.13;5048907;28;20032;-71
2022/06/01 01:49:27;;;;;;;4.38;1.30;;;;;;;11.39;64.23;100249.53;5050212;28;20061;-71
2022/06/01 01:51:58;;;;;;;2.40;1.25;;;;;;;11.38;64.00;100259.28;5049197;28;20037;-71
2022/06/01 01:54:34;;;;;;;1.80;1.13;;;;;;;11.33;64.11;100263.44;5048588;28;20603;-71
2022/06/01 01:57:24;;;;;;;1.80;1.40;;;;;;;11.27;64.08;100267.53;5049937;28;20029;-71
2022/06/01 02:00:04;;;;;;;1.67;1.20;;;;;;;11.23;64.13;100277.63;5049033;28;20402;-71
2022/06/01 02:02:48;;;;;;;2.28;1.27;;;;;;;11.16;65.92;100271.34;5049047;28;20033;-71
2022/06/01 02:08:24;;;;;;;2.90;1.80;;;;;;;11.07;65.91;100260.91;5046018;28;20125;-71
2022/06/01 02:13:38;;;;;;;2.00;1.52;;;;;;;11.03;65.46;100257.72;5050590;28;20573;-71
2022/06/01 02:16:04;;;;;;;2.15;1.60;;;;;;;11.04;66.40;100259.41;5048269;28;20052;-71
2022/06/01 02:18:41;;;;;;;2.55;1.88;;;;;;;11.04;67.11;100257.56;5050981;28;20040;-71
2022/06/01 02:21:14;;;;;;;2.50;1.92;;;;;;;11.03;67.54;100255.91;5049091;28;20047;-71
2022/06/01 02:23:39;;;;;;;2.33;1.90;;;;;;;11.03;66.96;100252.44;5047738;28;20037;-71
2022/06/01 02:26:05;;;;;;;2.25;1.60;;;;;;;11.03;66.90;100261.19;5048887;28;20045;-71
2022/06/01 02:28:32;;;;;;;2.65;1.70;;;;;;;11.04;66.84;100251.47;5049465;28;20036;-71
2022/06/01 02:30:59;;;;;;;3.25;1.83;;;;;;;11.04;66.62;100251.47;5049537;28;20029;-71
2022/06/01 02:33:31;;;;;;;2.00;1.33;;;;;;;11.07;66.59;100267.00;5050971;28;20033;-71
2022/06/01 02:35:58;;;;;;;2.38;1.80;;;;;;;11.05;66.78;100263.69;5049446;28;20037;-71
2022/06/01 02:38:36;;;;;;;2.95;1.85;;;;;;;11.05;67.07;100258.41;5051312;28;20029;-71
2022/06/01 02:41:03;;;;;;;2.40;1.75;;;;;;;11.04;67.33;100259.41;5047203;28;20064;-71
2022/06/01 02:43:28;;;;;;;2.17;1.60;;;;;;;11.00;67.02;100258.06;5048357;28;20135;-71
2022/06/01 02:45:53;;;;;;;1.70;1.30;;;;;;;10.97;66.92;100263.69;5050308;28;20135;-71
2022/06/01 02:48:19;;;;;;;1.67;1.23;;;;;;;10.96;67.29;100262.00;5052724;28;20064;-71
2022/06/01 02:50:45;;;;;;;1.98;1.30;;;;;;;10.93;67.24;100268.44;5054261;28;20039;-71
2022/06/01 02:53:10;;;;;;;2.00;1.50;;;;;;;10.97;67.40;100271.63;5049487;28;20037;-71
2022/06/01 02:55:36;;;;;;;2.30;1.80;;;;;;;11.10;67.50;100266.69;5049331;28;20058;-70
2022/06/01 02:58:03;;;;;;;2.78;1.40;;;;;;;11.22;66.86;100267.19;5049405;28;20057;-71
2022/06/01 03:00:35;;;;;;;1.88;1.40;;;;;;;11.32;66.44;100270.56;5052525;28;20033;-71
2022/06/01 03:03:01;;;;;;;2.10;1.33;;;;;;;11.41;66.21;100263.44;5050870;28;20123;-71
2022/06/01 03:05:31;;;;;;;1.58;1.27;;;;;;;11.46;67.03;100261.97;5051281;28;20038;-71
2022/06/01 03:07:57;;;;;;;1.90;1.42;;;;;;;11.53;66.84;100266.59;5051475;28;20033;-71
2022/06/01 03:10:24;;;;;;;2.00;1.38;;;;;;;11.53;66.95;100264.75;5049028;28;20494;-71
2022/06/01 03:12:51;;;;;;;1.60;1.30;;;;;;;11.54;66.68;100265.63;5051094;28;20061;-71
2022/06/01 03:15:19;;;;;;;1.80;1.20;;;;;;;11.52;67.02;100263.13;5051958;28;20048;-71
2022/06/01 03:17:45;;;;;;;1.92;1.48;;;;;;;11.47;67.29;100262.78;5051142;28;20481;-71
2022/06/01 03:20:13;;;;;;;2.05;1.40;;;;;;;11.43;67.24;100253.50;5051556;28;20608;-71
2022/06/01 03:22:41;;;;;;;2.08;1.55;;;;;;;11.38;67.30;100261.13;5048574;28;20101;-71
2022/06/01 03:25:10;;;;;;;2.30;1.60;;;;;;;11.33;66.98;100253.66;5048893;28;20123;-71
2022/06/01 03:27:36;;;;;;;2.00;1.40;;;;;;;11.26;67.18;100255.31;5049053;28;20111;-71
2022/06/01 03:30:03;;;;;;;3.17;1.40;;;;;;;11.20;66.95;100254.16;5047580;28;20510;-71
2022/06/01 03:32:29;;;;;;;3.03;1.60;;;;;;;11.14;67.55;100252.13;5047989;28;20056;-71
2022/06/01 03:34:54;;;;;;;2.67;1.50;;;;;;;11.13;67.65;100268.16;5048987;28;20056;-71
2022/06/01 03:37:20;;;;;;;3.88;1.80;;;;;;;11.08;69.18;100268.66;5047683;28;20520;-71
2022/06/01 03:39:46;;;;;;;2.53;1.67;;;;;;;11.02;68.57;100264.03;5048045;28;20029;-71
2022/06/01 03:42:11;;;;;;;2.42;1.60;;;;;;;10.95;68.88;100263.00;5046458;28;20091;-71
2022/06/01 03:47:20;;;;;;;3.13;2.00;;;;;;;10.81;69.15;100262.63;5046085;28;20101;-71
2022/06/01 03:49:46;;;;;;;3.13;1.85;;;;;;;10.76;69.17;100259.63;5047440;28;20032;-71
2022/06/01 03:52:11;;;;;;;3.17;2.10;;;;;;;10.72;69.58;100260.94;5049322;28;20044;-71
2022/06/01 03:54:38;;;;;;;4.22;2.60;;;;;;;10.69;69.94;100274.47;5046397;28;20128;-71
2022/06/01 03:57:03;;;;;;;3.33;2.30;;;;;;;10.66;69.46;100282.72;5047530;28;20129;-71
2022/06/01 03:59:30;;;;;;;4.03;2.35;;;;;;;10.65;69.33;100289.00;5047176;28;20132;-71
2022/06/01 04:01:59;;;;;;;3.13;2.28;;;;;;;10.70;69.38;100293.81;5045643;28;20651;-70
2022/06/01 04:04:25;;;;;;;4.47;2.70;;;;;;;10.73;69.25;100304.91;5047286;28;20474;-70
2022/06/01 04:06:50;;;;;;;3.08;2.17;;;;;;;10.77;68.85;100302.75;5049545;28;20072;-71
2022/06/01 04:09:15;;;;;;;3.70;2.10;;;;;;;10.80;68.85;100313.88;5046641;28;20037;-71
2022/06/01 04:11:41;;;;;;;2.83;2.00;;;;;;;10.81;68.71;100315.50;5048094;28;20051;-71
2022/06/01 04:14:07;;;;;;;3.75;2.10;;;;;;;10.82;68.72;100319.84;5045645;28;20036;-71
2022/06/01 04:16:32;;;;;;;2.42;1.80;;;;;;;10.87;68.57;100321.16;5048836;28;20033;-71
2022/06/01 04:18:57;;;;;;;4.47;2.42;;;;;;;10.89;68.95;100317.38;5046979;28;20128;-71
2022/06/01 04:21:25;;;;;;;2.92;2.20;;;;;;;10.89;68.68;100320.00;5047185;28;20067;-71
2022/06/01 04:23:51;;;;;;;2.75;1.90;;;;;;;10.89;68.77;100320.00;5048887;28;20040;-71
2022/06/01 04:26:17;;;;;;;3.75;2.45;;;;;;;10.91;68.67;100320.69;5044906;28;20052;-71
2022/06/01 04:28:44;;;;;;;3.70;2.22;;;;;;;10.96;68.69;100328.16;5047557;28;20498;-71
2022/06/01 04:31:09;;;;;;;5.53;2.60;;;;;;;11.01;68.72;100326.69;5048783;28;20037;-71
2022/06/01 04:33:38;;;;;;;3.78;2.17;;;;;;;11.07;68.64;100327.03;5046453;28;20405;-71
2022/06/01 04:36:04;;;;;;;2.90;2.00;;;;;;;11.08;68.92;100326.88;5045964;28;20068;-72
2022/06/01 04:38:30;;;;;;;3.42;2.28;;;;;;;11.12;68.74;100327.38;5049177;28;20036;-71
2022/06/01 04:40:55;;;;;;;3.60;2.03;;;;;;;11.22;68.39;100326.25;5048386;28;20472;-71
2022/06/01 04:43:22;;;;;;;2.58;2.00;;;;;;;11.41;68.70;100326.97;5045893;28;20041;-71
2022/06/01 04:45:52;;;;;;;2.90;2.15;;;;;;;11.58;68.43;100326.00;5043656;28;20083;-71
2022/06/01 04:48:18;;;;;;;2.55;1.70;;;;;;;11.68;68.52;100321.41;5046983;28;20033;-71
2022/06/01 04:50:44;;;;;;;2.30;1.60;;;;;;;11.83;68.23;100323.41;5046303;28;20370;-71
2022/06/01 04:53:15;;;;;;;2.55;1.80;;;;;;;11.94;68.14;100325.75;5047416;28;20433;-71
2022/06/01 04:55:42;;;;;;;2.88;1.80;;;;;;;12.00;68.36;100324.25;5050427;28;20030;-72
2022/06/01 04:58:07;;;;;;;2.95;1.90;;;;;;;12.06;68.58;100327.06;5043860;28;20470;-72
2022/06/01 05:00:33;;;;;;;3.45;2.00;;;;;;;12.09;68.82;100329.38;5047476;28;20083;-71
2022/06/01 05:02:59;;;;;;;3.42;2.00;;;;;;;12.09;68.97;100331.22;5046044;28;20040;-71
2022/06/01 05:05:25;;;;;;;3.08;2.00;;;;;;;12.12;69.05;100320.28;5046709;28;20033;-71
2022/06/01 05:07:51;;;;;;;2.95;1.98;;;;;;;12.23;68.67;100319.13;5046989;28;20025;-71
2022/06/01 05:10:16;;;;;;;3.40;2.33;;;;;;;12.39;68.80;100320.91;5046243;28;20055;-71
2022/06/01 05:12:41;;;;;;;3.95;2.53;;;;;;;12.58;68.42;100319.69;5045780;28;20506;-71
2022/06/01 05:15:08;;;;;;;3.10;2.38;;;;;;;12.75;68.12;100310.69;5045776;28;20041;-71
2022/06/01 05:17:33;;;;;;;4.00;2.45;;;;;;;12.98;67.77;100312.59;5045437;28;20037;-71
2022/06/01 05:19:59;;;;;;;2.97;2.15;;;;;;;13.33;67.10;100316.59;5046374;28;20044;-71
2022/06/01 05:22:24;;;;;;;2.88;2.22;;;;;;;13.75;66.00;100313.50;5047131;28;20225;-72
2022/06/01 05:24:50;;;;;;;4.20;2.00;;;;;;;14.06;65.43;100315.22;5047514;28;20087;-71
2022/06/01 05:27:15;;;;;;;3.63;2.05;;;;;;;14.29;64.86;100315.19;5046393;28;20033;-72
2022/06/01 05:29:40;;;;;;;2.97;2.00;;;;;;;14.36;64.29;100318.78;5047402;28;20037;-72
2022/06/01 05:32:06;;;;;;;2.90;2.00;;;;;;;14.33;63.96;100316.50;5044840;28;20030;-72
2022/06/01 05:34:31;;;;;;;2.83;1.70;;;;;;;14.28;64.14;100308.22;5046501;28;20068;-71
2022/06/01 05:36:57;;;;;;;2.77;1.70;;;;;;;14.21;63.93;100318.75;5045324;28;20036;-72
2022/06/01 05:39:22;;;;;;;4.00;2.17;;;;;;;14.29;64.01;100317.84;5047508;28;20072;-72
2022/06/01 05:41:47;;;;;;;2.53;1.73;;;;;;;14.58;63.72;100311.75;5051262;28;20033;-72
2022/06/01 05:44:13;;;;;;;2.13;1.65;;;;;;;15.16;63.10;100314.56;5049073;28;20045;-72
2022/06/01 05:46:39;;;;;;;2.40;1.73;;;;;;;15.72;61.31;100327.28;5049893;28;20072;-72
2022/06/01 05:49:05;;;;;;;2.72;1.88;;;;;;;16.21;60.63;100326.50;5050854;28;20532;-72
2022/06/01 05:51:32;;;;;;;3.67;1.92;;;;;;;16.31;59.71;100332.31;5049238;28;20084;-72
2022/06/01 05:53:57;;;;;;;2.60;1.70;;;;;;;16.31;59.89;100332.31;5046706;28;20116;-72
2022/06/01 05:56:22;;;;;;;2.13;1.70;;;;;;;16.73;58.94;100329.69;5047776;28;20067;-72
2022/06/01 05:58:48;;;;;;;2.28;1.60;;;;;;;17.01;58.88;100323.50;5049758;28;20132;-72
2022/06/01 06:01:16;;;;;;;4.40;2.22;;;;;;;17.66;57.48;100324.72;5047095;28;20558;-72
2022/06/01 06:03:42;;;;;;;2.95;1.90;;;;;;;18.29;56.93;100323.56;5047099;28;20037;-72
2022/06/01 06:06:15;;;;;;;1.83;1.35;;;;;;;19.08;55.96;100327.91;5045037;28;20427;-72
2022/06/01 06:09:02;;;;;;;3.53;1.50;;;;;;;19.39;54.98;100327.16;5048067;28;20037;-73
2022/06/01 06:11:32;;;;;;;;;;;;;;;19.65;54.88;100323.50;5050688;28;20033;-73
2022/06/01 06:13:58;;;;;;;2.30;1.30;;;;;;;20.14;53.96;100338.03;5048766;28;20072;-72
2022/06/01 06:16:25;;;;;;;3.13;1.60;;;;;;;20.51;52.77;100354.22;5063543;28;20041;-73
2022/06/01 06:18:51;;;;;;;3.25;1.70;;;;;;;20.73;51.18;100351.94;5050231;28;20440;-73
2022/06/01 06:21:17;;;;;;;3.00;1.90;;;;;;;21.05;50.46;100356.38;5049381;28;20041;-73
2022/06/01 06:23:43;;;;;;;2.63;1.88;;;;;;;21.56;48.28;100349.72;5053486;28;20112;-73
2022/06/01 06:26:08;;;;;;;3.58;1.75;;;;;;;21.33;48.26;100350.41;5051234;28;20076;-73
2022/06/01 06:28:34;;;;;;;2.22;1.52;;;;;;;21.12;47.53;100362.50;5052403;28;20044;-73
2022/06/01 06:30:59;;;;;;;2.97;1.83;;;;;;;20.78;47.02;100362.88;5050841;28;20036;-73
2022/06/01 06:33:25;;;;;;;2.28;1.50;;;;;;;20.55;47.62;100358.13;5051938;28;20525;-73
2022/06/01 06:36:02;;;;;;;2.97;2.03;;;;;;;20.55;47.07;100371.56;5052877;28;20086;-73
2022/06/01 06:38:29;;;;;;;3.63;2.10;;;;;;;20.55;46.00;100358.13;5050021;28;20041;-73
2022/06/01 06:40:57;;;;;;;3.00;1.80;;;;;;;20.73;46.29;100367.25;5053115;28;20052;-73
2022/06/01 06:43:24;;;;;;;4.07;2.00;;;;;;;20.97;45.55;100365.53;5050146;28;20037;-72
2022/06/01 06:45:55;;;;;;;2.67;1.85;;;;;;;21.18;44.30;100367.78;5052742;28;20029;-72
2022/06/01 06:48:20;;;;;;;3.97;1.95;;;;;;;21.33;43.74;100363.88;5048045;28;20025;-73
2022/06/01 06:50:46;;;;;;;2.47;1.60;;;;;;;21.62;43.91;100356.91;5052002;28;20033;-72
2022/06/01 06:53:11;;;;;;;2.72;1.50;;;;;;;21.97;43.42;100356.16;5048480;28;20033;-72
2022/06/01 06:55:36;;;;;;;2.20;1.40;;;;;;;22.27;42.92;100356.94;5050407;28;20029;-73
2022/06/01 06:58:02;;;;;;;2.60;1.75;;;;;;;22.83;41.63;100359.25;5048402;28;20033;-72
2022/06/01 07:00:27;;;;;;;2.38;1.30;;;;;;;22.95;40.89;100362.75;5049806;28;20047;-72
2022/06/01 07:02:52;;;;;;;3.10;1.42;;;;;;;23.17;40.58;100359.44;5050770;28;20029;-72
2022/06/01 07:06:08;;;;;;;2.97;1.50;;;;;;;23.02;38.97;100359.97;5048783;28;20033;-72
2022/06/01 07:08:05;;;;;;;2.05;1.23;;;;;;;23.30;39.10;100365.38;5047645;28;20591;-73
2022/06/01 07:10:30;;;;;;;2.38;1.13;;;;;;;23.49;38.45;100357.94;5050360;28;20040;-73
2022/06/01 07:12:56;;;;;;;1.23;0.95;;;;;;;23.67;38.73;100356.09;5049962;28;20067;-73
2022/06/01 07:15:21;;;;;;;2.60;1.20;;;;;;;23.92;37.76;100361.16;5048355;28;20421;-73
2022/06/01 07:17:46;;;;;;;1.85;1.10;;;;;;;24.31;37.76;100363.94;5048817;28;20025;-73
2022/06/01 07:20:12;;;;;;;1.70;1.00;;;;;;;24.75;36.95;100370.28;5048489;28;20037;-73
2022/06/01 07:22:37;;;;;;;1.85;1.00;;;;;;;24.82;36.08;100366.59;5050183;28;20266;-73
2022/06/01 07:25:03;;;;;;;1.43;1.10;;;;;;;24.91;35.86;100365.91;5048190;28;20040;-73
2022/06/01 07:27:28;;;;;;;1.63;1.10;;;;;;;25.04;35.28;100367.41;5047187;28;20365;-73
2022/06/01 07:29:53;;;;;;;1.63;0.88;;;;;;;25.47;35.67;100363.06;5049578;28;20033;-73
2022/06/01 07:32:18;;;;;;;1.80;1.00;;;;;;;25.90;35.38;100363.25;5047441;28;20462;-73
2022/06/01 07:34:44;;;;;;;3.47;1.25;;;;;;;26.26;33.96;100369.75;5048637;28;20303;-73
2022/06/01 07:45:20;;;;;;;2.88;0.90;;;;;;;26.24;31.66;100364.63;5051370;28;20040;-73
2022/06/01 07:47:46;;;;;;;2.25;1.20;;;;;;;26.01;31.82;100363.06;5052119;28;20029;-73
2022/06/01 07:50:11;;;;;;;2.00;0.90;;;;;;;26.10;31.83;100368.00;5049917;28;20036;-73
2022/06/01 07:52:36;;;;;;;1.90;0.98;;;;;;;26.06;31.61;100368.53;5051402;28;20366;-72
2022/06/01 07:55:02;;;;;;;1.85;1.13;;;;;;;25.84;30.37;100370.50;5053137;28;20111;-73
2022/06/01 07:57:28;;;;;;;1.35;0.80;;;;;;;26.17;31.03;100361.31;5048377;28;20083;-72
2022/06/01 07:59:53;;;;;;;1.20;0.70;;;;;;;26.55;30.63;100364.03;5048567;28;20037;-73
2022/06/01 08:02:19;;;;;;;2.47;1.20;;;;;;;26.47;29.15;100362.59;5046233;28;20036;-73
2022/06/01 08:04:44;;;;;;;1.20;0.70;;;;;;;26.95;30.38;100368.84;5048151;28;20351;-74
2022/06/01 08:07:10;;;;;;;2.20;0.90;;;;;;;27.56;29.85;100367.47;5045811;28;20450;-73
2022/06/01 08:09:35;;;;;;;1.35;0.88;;;;;;;28.16;29.39;100366.69;5048323;28;20128;-73
2022/06/01 08:14:45;;;;;;;2.25;0.80;;;;;;;28.99;27.12;100373.63;5048093;28;20302;-73
2022/06/01 08:17:10;;;;;;;1.50;0.90;;;;;;;28.92;27.10;100366.84;5047883;28;20037;-73
2022/06/01 08:19:35;;;;;;;3.55;1.00;;;;;;;28.71;26.75;100361.47;5045896;28;20539;-73
2022/06/01 08:22:01;;;;;;;1.60;0.80;;;;;;;28.67;27.26;100365.00;5048058;28;20567;-73
2022/06/01 08:24:27;;;;;;;1.58;0.60;;;;;;;29.16;26.80;100367.06;5048690;28;20041;-73
2022/06/01 08:26:53;;;;;;;1.58;1.00;;;;;;;29.77;25.89;100365.88;5050691;28;20039;-73
2022/06/01 08:29:18;;;;;;;0.98;0.52;;;;;;;30.15;25.94;100364.22;5051607;28;20037;-73
2022/06/01 08:31:43;;;;;;;1.23;0.60;;;;;;;30.62;25.39;100370.88;5048964;28;20029;-73
2022/06/01 08:34:10;;;;;;;2.25;0.60;;;;;;;31.05;25.36;100368.19;5050663;28;20310;-74
2022/06/01 08:36:35;;;;;;;1.88;0.80;;;;;;;30.98;24.26;100373.22;5053628;28;20037;-73
2022/06/01 08:39:01;;;;;;;1.58;0.70;;;;;;;30.82;23.67;100374.47;5049323;28;20029;-74
2022/06/01 08:41:33;;;;;;;1.02;0.60;;;;;;;31.15;23.75;100377.38;5049712;28;20086;-73
2022/06/01 08:44:03;;;;;;;1.45;0.75;;;;;;;31.77;23.43;100380.06;5062547;28;20303;-73
2022/06/01 08:46:30;;;;;;;2.25;0.80;;;;;;;31.95;23.33;100380.09;5047636;28;20033;-73
2022/06/01 08:48:59;;;;;;;1.23;0.60;;;;;;;32.07;22.83;100373.34;5047481;28;20040;-73
2022/06/01 08:51:29;;;;;;;2.05;1.02;;;;;;;32.49;21.78;100371.47;5040678;28;20037;-73
2022/06/01 08:53:56;;;;;;;1.00;0.73;;;;;;;32.58;22.36;100373.28;5045677;28;20043;-73
2022/06/01 08:56:46;;;;;;;2.53;0.98;;;;;;;31.94;22.18;100377.59;5046929;28;20296;-73
2022/06/01 08:59:31;;;;;;;1.40;0.80;;;;;;;31.56;22.12;100369.47;5046198;28;20131;-73
2022/06/01 09:02:29;;;;;;;0.93;0.60;;;;;;;32.07;22.40;100367.88;5048375;28;20033;-73
2022/06/01 09:05:06;;;;;;;1.70;0.80;;;;;;;32.11;21.92;100366.97;5047460;28;20081;-72
2022/06/01 09:07:48;;;;;;;1.25;0.80;;;;;;;32.65;21.84;100372.03;5047473;28;20044;-73
2022/06/01 09:10:47;;;;;;;1.05;0.60;;;;;;;33.11;21.48;100371.13;5064303;28;20065;-73
2022/06/01 09:13:23;;;;;;;1.23;0.70;;;;;;;33.76;20.86;100381.75;5062251;28;20043;-73
2022/06/01 09:16:06;;;;;;;2.42;0.90;;;;;;;33.79;19.82;100383.03;5045785;28;20518;-73
2022/06/01 09:18:52;;;;;;;2.28;0.98;;;;;;;33.90;19.61;100380.88;5046007;28;20037;-73
2022/06/01 09:24:11;;;;;;;1.30;0.80;;;;;;;33.27;20.62;100377.88;5046781;28;20048;-72
2022/06/01 09:26:54;;;;;;;2.15;0.80;;;;;;;33.77;20.24;100375.13;5042229;28;20044;-73
2022/06/01 09:29:27;;;;;;;1.30;0.70;;;;;;;34.71;19.35;100366.16;5043211;28;20049;-73
2022/06/01 09:32:27;;;;;;;1.10;0.60;;;;;;;34.55;17.90;100372.06;5046560;28;20048;-73
2022/06/01 09:34:57;;;;;;;0.85;0.60;;;;;;;34.48;18.93;100375.25;5054257;28;20033;-73
2022/06/01 09:37:25;;;;;;;0.60;0.50;;;;;;;34.88;18.57;100377.22;5050222;28;20041;-73
2022/06/01 09:40:04;;;;;;;1.50;0.70;;;;;;;34.98;18.01;100379.66;5046414;28;20080;-73
2022/06/01 09:42:41;;;;;;;1.42;0.70;;;;;;;35.13;18.09;100372.13;5045800;28;20398;-73
2022/06/01 09:45:27;;;;;;;0.93;0.60;;;;;;;35.85;18.24;100379.78;5048109;28;20087;-73
2022/06/01 09:48:07;;;;;;;2.08;0.75;;;;;;;36.07;16.54;100377.97;5069028;28;20045;-73
2022/06/01 09:50:34;;;;;;;1.52;0.70;;;;;;;36.39;16.94;100384.84;5047457;28;20041;-73
2022/06/01 09:53:12;;;;;;;2.95;0.60;;;;;;;36.45;15.87;100378.03;5047639;28;20048;-72
2022/06/01 09:56:02;;;;;;;1.75;0.70;;;;;;;36.53;16.04;100374.41;5047827;28;20122;-72
2022/06/01 10:07:07;;;;;;;1.38;0.55;;;;;;;37.66;15.45;100375.69;5052742;28;20036;-72
2022/06/01 10:09:34;;;;;;;2.47;0.80;;;;;;;37.55;15.31;100371.78;5053068;28;20547;-72
2022/06/01 10:12:24;;;;;;;1.58;0.80;;;;;;;36.35;15.11;100370.13;5052942;28;20037;-71
2022/06/01 10:14:53;;;;;;;2.25;0.63;;;;;;;36.30;16.08;100353.78;5054245;28;20036;-72
2022/06/01 10:17:33;;;;;;;1.35;0.68;;;;;;;36.12;15.91;100364.84;5058346;28;20379;-72
2022/06/01 10:20:21;;;;;;;2.08;0.98;;;;;;;36.17;16.02;100363.06;5052498;28;20056;-72
2022/06/01 10:22:52;;;;;;;2.58;0.80;;;;;;;36.08;15.90;100358.34;5056732;28;20032;-71
2022/06/01 10:25:24;;;;;;;2.88;0.60;;;;;;;37.22;15.64;100355.94;5052848;28;20037;-72
2022/06/01 10:27:57;;;;;;;1.45;0.70;;;;;;;38.21;15.40;100369.03;5052329;28;20575;-72
2022/06/01 10:30:27;;;;;;;2.20;0.88;;;;;;;37.07;15.62;100362.06;5051696;28;20120;-71
2022/06/01 10:33:06;;;;;;;1.30;0.80;;;;;;;34.89;16.86;100357.66;5052322;28;20456;-72
2022/06/01 10:35:38;;;;;;;2.55;0.70;;;;;;;35.87;16.37;100357.41;5057270;28;20526;-71
2022/06/01 10:38:27;;;;;;;2.75;0.85;;;;;;;36.77;16.00;100351.00;5052737;28;20123;-72
2022/06/01 10:41:00;;;;;;;2.85;0.93;;;;;;;37.70;14.79;100346.28;5052420;28;20113;-71
2022/06/01 10:43:41;;;;;;;2.05;0.77;;;;;;;38.95;14.22;100351.69;5050991;28;20086;-72
2022/06/01 10:46:38;;;;;;;1.60;0.70;;;;;;;38.69;14.12;100338.19;5050999;28;20043;-72
2022/06/01 10:49:29;;;;;;;1.98;0.82;;;;;;;36.34;15.61;100340.97;5049638;28;20072;-72
2022/06/01 10:52:33;;;;;;;1.10;0.75;;;;;;;35.81;15.97;100333.97;5052479;28;20043;-72
2022/06/01 10:54:58;;;;;;;2.25;0.80;;;;;;;34.44;17.29;100340.50;5051858;28;20059;-71
2022/06/01 10:57:24;;;;;;;2.07;0.83;;;;;;;33.05;18.09;100336.75;5051156;28;20033;-71
2022/06/01 10:59:49;;;;;;;1.15;0.77;;;;;;;32.59;18.83;100335.75;5052076;28;20526;-71
2022/06/01 11:02:30;;;;;;;1.25;0.63;;;;;;;31.09;20.08;100325.56;5051437;28;20110;-71
2022/06/01 11:04:55;;;;;;;;;;;;;;;31.13;20.05;100324.94;5052270;28;20036;-71
2022/06/01 11:07:55;;;;;;;2.73;0.80;;;;;;;32.74;19.29;100316.25;5052093;28;19966;-71
2022/06/01 11:10:43;;;;;;;2.35;0.90;;;;;;;34.49;17.55;100307.41;5051580;28;20264;-71
2022/06/01 11:13:36;;;;;;;1.27;0.70;;;;;;;35.51;16.88;100303.56;5051988;28;20033;-71
2022/06/01 11:16:27;;;;;;;1.70;0.80;;;;;;;36.98;15.70;100313.25;5052283;28;20037;-72
2022/06/01 11:19:08;;;;;;;2.05;0.80;;;;;;;37.49;15.61;100307.66;5052153;28;20490;-72
2022/06/01 11:21:43;;;;;;;;;;;;;;;38.39;14.51;100302.50;5051255;28;20093;-72
2022/06/01 11:24:15;;;;;;;1.85;0.90;;;;;;;38.93;14.01;100304.25;5060475;28;19916;-72
2022/06/01 11:27:06;;;;;;;1.23;0.68;;;;;;;39.04;14.39;100303.38;5052357;28;20053;-72
2022/06/01 11:29:56;;;;;;;2.95;0.70;;;;;;;35.78;16.19;100301.59;5051248;28;20048;-71
2022/06/01 11:32:27;;;;;;;2.15;0.63;;;;;;;34.23;17.10;100285.38;5051591;28;21506;-71
2022/06/01 11:35:01;;;;;;;2.83;1.00;;;;;;;34.26;17.24;100292.97;5056306;28;20048;-71
2022/06/01 11:37:52;;;;;;;1.90;0.85;;;;;;;32.30;18.07;100293.03;5052856;28;20047;-71
2022/06/01 11:40:28;;;;;;;;;;;;;;;31.46;19.08;100299.38;5052123;28;20063;-71
2022/06/01 11:43:02;;;;;;;4.38;1.17;;;;;;;30.99;19.19;100292.94;5053424;28;20401;-71
2022/06/01 11:45:33;;;;;;;1.10;0.60;;;;;;;30.75;19.78;100294.84;5055911;28;20033;-71
2022/06/01 11:48:07;;;;;;;2.73;0.70;;;;;;;29.79;20.70;100293.63;5050858;28;20073;-71
2022/06/01 11:50:32;;;;;;;2.27;0.90;;;;;;;29.30;21.26;100296.44;5058421;28;20067;-71
2022/06/01 11:52:58;;;;;;;1.97;0.90;;;;;;;29.13;21.83;100302.28;5050594;28;19916;-71
2022/06/01 11:55:30;;;;;;;2.10;0.80;;;;;;;28.66;21.59;100298.09;5050793;28;20063;-71
2022/06/01 11:58:21;;;;;;;1.83;0.98;;;;;;;29.50;21.69;100290.84;5050072;28;20033;-71
2022/06/01 12:00:53;;;;;;;2.13;1.00;;;;;;;31.55;20.36;100288.56;5050739;28;20036;-71
2022/06/01 12:03:22;;;;;;;2.08;1.00;;;;;;;31.00;20.46;100289.06;5050768;28;20040;-71
2022/06/01 12:06:08;;;;;;;1.33;0.80;;;;;;;31.89;20.32;100292.91;5042287;28;20045;-72
2022/06/01 12:09:00;;;;;;;1.20;0.70;;;;;;;32.32;19.17;100282.59;5040362;28;20041;-71
2022/06/01 12:11:42;;;;;;;1.25;0.70;;;;;;;30.87;20.65;100284.34;5048480;28;20094;-71